sim
Sign-in with your pilot id or email,
or register
Callsign
Passwort

Schedule Details

Flight Number: DLH428
Departure: Munich Airport (EDDM) at 11:20
Arrival: Charlotte Douglas International Airport (KCLT) at 22:00
Route: Lufthansa Passenger Schedule. Enter filed route here before submitting Pirep.

Weather Information
Getting current METAR information for EDDM 250520Z 19006KT 9999 -RA SCT040 13/12 Q1001 NOSIG
Getting current METAR information for KCLT 250452Z 08007KT 6SM -RA BR OVC070 17/17 A3006 RMK AO2 SLP175 P0008 T01720167 402280161

Schedule Frequency

Route Map